West Yellowstone, Montana
Current Conditions -  °F | °C
As of 4:15 PM on Saturday 25 Oct 2014 (Local Time) from KWYS Reporting Station
Clear Clear  
Wind Chill: 18°   Ceiling: Unl
Heat Index: 18°   Visibility: 10mi
Dew Point: -3°   Wind: 17mph
Humidity: 24%   Direction: 210°SSW
Pressure: 29.97"   Gusts: 23mph
Location:  44.66°N, 111.1°W
Report Text: KWYS 252215Z AUTO 21015G20KT 10SM CLR 18/M03 A2997 RMK AO2
Loading
Personal Weather Stations






























Interactive Weather Map New forecast layout! Learn more

10-Day Weather Forecast

Advertisements
Track Severe Weather on mobile